Time;durP1;ratioP1;P1;durP2;ratioP2;P2;SDS_P1;SDS_P2;PMS_P1;PMS_P2;Temp;Humidity;BMP_temperature;BMP_pressure;BME280_temperature;BME280_humidity;BME280_pressure;Samples;Min_cycle;Max_cycle;Signal;HPM_P1;HPM_P2
2022/12/22 03:26:28;;;;;;;78.82;20.13;;;;;;;;;;5067997;28;20053;-79
2022/12/22 03:28:54;;;;;;;75.75;19.23;;;;;;;;;;5047791;28;20061;-79
2022/12/22 03:31:21;;;;;;;88.00;20.63;;;;;;;;;;5050386;28;20058;-79
2022/12/22 03:33:47;;;;;;;82.00;21.08;;;;;;;;;;5050806;28;20052;-79
2022/12/22 03:36:13;;;;;;;87.78;20.00;;;;;;;;;;5068609;28;20078;-78
2022/12/22 03:38:39;;;;;;;95.63;20.83;;;;;;;;;;5049701;28;20064;-79
2022/12/22 03:41:06;;;;;;;94.93;22.92;;;;;;;;;;5067382;28;20513;-79
2022/12/22 03:46:29;;;;;;;79.05;20.58;;;;;;;;;;5069061;28;20052;-78
2022/12/22 03:49:11;;;;;;;83.72;20.63;;;;;;;;;;5069410;28;20121;-79
2022/12/22 03:51:40;;;;;;;119.72;22.75;;;;;;;;;;5068892;28;20052;-79
2022/12/22 03:54:07;;;;;;;129.25;23.50;;;;;;;;;;5068330;28;20534;-79
2022/12/22 03:56:34;;;;;;;110.38;22.63;;;;;;;;;;5068120;28;20076;-78
2022/12/22 03:59:00;;;;;;;120.00;22.77;;;;;;;;;;5068732;28;20595;-79
2022/12/22 04:01:27;;;;;;;110.13;21.17;;;;;;;;;;5057373;28;20060;-78
2022/12/22 04:03:54;;;;;;;119.60;22.08;;;;;;;;;;5069474;28;20057;-79
2022/12/22 04:06:20;;;;;;;92.55;22.65;;;;;;;;;;5050148;28;20049;-79
2022/12/22 04:08:46;;;;;;;198.98;26.83;;;;;;;;;;5071485;28;20470;-79
2022/12/22 04:13:58;;;;;;;120.40;23.92;;;;;;;;;;5059615;28;20519;-79
2022/12/22 04:16:25;;;;;;;114.85;22.55;;;;;;;;;;5063548;28;20504;-79
2022/12/22 04:18:51;;;;;;;101.32;21.27;;;;;;;;;;5071702;28;20206;-79
2022/12/22 04:21:17;;;;;;;154.95;24.30;;;;;;;;;;5071553;28;20063;-79
2022/12/22 04:23:44;;;;;;;105.82;23.05;;;;;;;;;;5071219;28;20056;-79
2022/12/22 04:26:10;;;;;;;99.32;21.60;;;;;;;;;;5069808;28;20088;-79
2022/12/22 04:28:37;;;;;;;126.30;22.50;;;;;;;;;;5069158;28;20060;-79
2022/12/22 04:31:03;;;;;;;136.60;23.85;;;;;;;;;;5070994;28;20052;-79
2022/12/22 04:33:30;;;;;;;103.72;22.42;;;;;;;;;;5071693;28;20061;-79
2022/12/22 04:35:56;;;;;;;90.30;21.27;;;;;;;;;;5072131;28;20111;-79
2022/12/22 04:38:23;;;;;;;150.10;25.73;;;;;;;;;;5071581;28;20061;-79
2022/12/22 04:40:49;;;;;;;102.00;22.95;;;;;;;;;;5070463;28;20503;-79
2022/12/22 04:43:15;;;;;;;117.65;22.75;;;;;;;;;;5070405;28;20074;-79
2022/12/22 04:45:42;;;;;;;121.90;23.23;;;;;;;;;;5066554;28;20586;-79
2022/12/22 04:48:09;;;;;;;76.00;20.23;;;;;;;;;;5072175;28;20057;-79
2022/12/22 04:50:35;;;;;;;115.90;22.20;;;;;;;;;;5072254;28;20124;-79
2022/12/22 04:53:02;;;;;;;70.80;20.30;;;;;;;;;;5050068;28;20054;-79
2022/12/22 04:55:28;;;;;;;93.93;21.30;;;;;;;;;;5051356;28;20072;-79
2022/12/22 04:57:54;;;;;;;78.40;20.13;;;;;;;;;;5066698;28;20099;-79
2022/12/22 05:00:21;;;;;;;62.65;18.73;;;;;;;;;;5069913;28;20104;-79
2022/12/22 05:02:47;;;;;;;66.50;19.08;;;;;;;;;;5070801;28;20104;-79
2022/12/22 05:05:14;;;;;;;69.00;18.40;;;;;;;;;;5068373;28;20108;-79
2022/12/22 05:07:42;;;;;;;58.85;18.90;;;;;;;;;;5051560;28;20058;-79
2022/12/22 05:10:08;;;;;;;76.00;19.67;;;;;;;;;;5051484;28;20057;-79
2022/12/22 05:12:53;;;;;;;77.63;18.95;;;;;;;;;;5069398;28;20108;-79
2022/12/22 05:15:20;;;;;;;70.20;19.23;;;;;;;;;;5062902;28;21152;-79
2022/12/22 05:17:46;;;;;;;63.92;17.85;;;;;;;;;;5051405;28;20045;-79
2022/12/22 05:20:13;;;;;;;80.85;18.58;;;;;;;;;;5062201;28;20084;-79
2022/12/22 05:22:39;;;;;;;69.03;18.08;;;;;;;;;;5052140;28;20064;-80
2022/12/22 05:25:06;;;;;;;64.93;17.58;;;;;;;;;;5069770;28;20504;-80
2022/12/22 05:27:32;;;;;;;94.22;20.02;;;;;;;;;;5069129;28;20064;-79
2022/12/22 05:29:58;;;;;;;69.97;17.40;;;;;;;;;;5070989;28;20056;-80
2022/12/22 05:32:25;;;;;;;60.55;17.10;;;;;;;;;;5047864;28;20131;-80
2022/12/22 05:34:51;;;;;;;76.80;18.20;;;;;;;;;;5064375;28;20060;-79
2022/12/22 05:37:17;;;;;;;90.63;18.58;;;;;;;;;;5068404;28;20502;-79
2022/12/22 05:39:44;;;;;;;60.10;17.25;;;;;;;;;;5070557;28;20068;-79
2022/12/22 05:42:10;;;;;;;76.07;18.15;;;;;;;;;;5052991;28;20504;-80
2022/12/22 05:44:36;;;;;;;72.00;16.75;;;;;;;;;;5068530;28;20052;-79
2022/12/22 05:47:03;;;;;;;78.55;18.30;;;;;;;;;;5069682;28;20962;-79
2022/12/22 05:49:29;;;;;;;67.65;15.75;;;;;;;;;;5068792;28;20064;-79
2022/12/22 05:51:56;;;;;;;70.10;16.23;;;;;;;;;;5070590;28;20131;-80
2022/12/22 05:54:22;;;;;;;64.38;16.17;;;;;;;;;;5048029;28;20053;-79
2022/12/22 05:56:48;;;;;;;71.75;16.67;;;;;;;;;;5049685;28;20061;-79
2022/12/22 05:59:15;;;;;;;72.30;16.08;;;;;;;;;;5064771;28;20059;-79
2022/12/22 06:01:41;;;;;;;66.70;15.70;;;;;;;;;;5070571;28;20056;-79
2022/12/22 06:04:08;;;;;;;65.10;15.60;;;;;;;;;;5068949;28;20056;-79
2022/12/22 06:06:34;;;;;;;65.07;15.60;;;;;;;;;;5051367;28;20072;-80
2022/12/22 06:09:00;;;;;;;68.15;15.52;;;;;;;;;;5067718;28;20060;-79
2022/12/22 06:11:27;;;;;;;73.07;16.50;;;;;;;;;;5051923;28;20059;-79
2022/12/22 06:13:53;;;;;;;66.85;15.82;;;;;;;;;;5069326;28;20121;-80
2022/12/22 06:16:20;;;;;;;68.30;16.70;;;;;;;;;;5069967;28;20057;-79
2022/12/22 06:18:46;;;;;;;66.93;16.70;;;;;;;;;;5068674;28;20049;-80
2022/12/22 06:21:12;;;;;;;66.95;16.25;;;;;;;;;;5066863;28;20049;-80
2022/12/22 06:23:39;;;;;;;64.68;15.88;;;;;;;;;;5070301;28;20061;-80
2022/12/22 06:26:05;;;;;;;65.00;16.50;;;;;;;;;;5063664;28;20527;-80
2022/12/22 06:28:31;;;;;;;58.72;15.07;;;;;;;;;;5056786;28;20057;-80
2022/12/22 06:30:58;;;;;;;69.85;15.23;;;;;;;;;;5031297;28;20077;-81
2022/12/22 06:33:24;;;;;;;62.75;15.48;;;;;;;;;;5052013;28;20059;-80
2022/12/22 06:35:50;;;;;;;51.67;14.73;;;;;;;;;;5068942;28;20102;-80
2022/12/22 06:38:24;;;;;;;55.50;15.50;;;;;;;;;;5065869;28;20115;-80
2022/12/22 06:40:51;;;;;;;63.17;15.15;;;;;;;;;;5068168;28;20061;-80
2022/12/22 06:43:17;;;;;;;65.75;15.90;;;;;;;;;;5069845;28;20065;-80
2022/12/22 06:45:44;;;;;;;64.78;16.48;;;;;;;;;;5068878;28;20092;-80
2022/12/22 06:48:11;;;;;;;60.53;16.27;;;;;;;;;;5059938;28;20053;-80
2022/12/22 06:50:38;;;;;;;61.92;17.73;;;;;;;;;;5064114;28;20130;-80
2022/12/22 06:53:04;;;;;;;67.63;18.63;;;;;;;;;;5067722;28;20060;-80
2022/12/22 06:55:31;;;;;;;71.78;18.40;;;;;;;;;;5068477;28;20056;-80
2022/12/22 06:57:57;;;;;;;67.85;18.50;;;;;;;;;;5068003;28;20056;-80
2022/12/22 07:00:23;;;;;;;76.88;18.52;;;;;;;;;;5068794;28;20072;-80
2022/12/22 07:02:50;;;;;;;78.57;18.77;;;;;;;;;;5069180;28;20057;-80
2022/12/22 07:05:17;;;;;;;73.03;17.88;;;;;;;;;;5068665;28;20057;-80
2022/12/22 07:07:43;;;;;;;75.43;18.73;;;;;;;;;;5069546;28;20056;-80
2022/12/22 07:10:10;;;;;;;83.78;19.42;;;;;;;;;;5069272;28;20059;-80
2022/12/22 07:12:36;;;;;;;84.55;19.67;;;;;;;;;;5067470;28;20088;-80
2022/12/22 07:15:03;;;;;;;81.60;18.75;;;;;;;;;;5068381;28;20081;-80
2022/12/22 07:17:29;;;;;;;87.18;18.02;;;;;;;;;;5069210;28;20045;-80
2022/12/22 07:19:55;;;;;;;87.07;20.23;;;;;;;;;;5068690;28;20059;-80
2022/12/22 07:22:22;;;;;;;82.80;18.67;;;;;;;;;;5069372;28;20049;-80
2022/12/22 07:24:55;;;;;;;85.18;18.30;;;;;;;;;;5069547;28;20536;-80
2022/12/22 07:27:22;;;;;;;82.88;18.63;;;;;;;;;;5069018;28;20048;-80
2022/12/22 07:29:48;;;;;;;67.50;16.40;;;;;;;;;;5069908;28;20061;-80
2022/12/22 07:32:14;;;;;;;67.97;17.23;;;;;;;;;;5069005;28;20603;-80
2022/12/22 07:34:41;;;;;;;66.35;17.05;;;;;;;;;;5066909;28;20049;-80
2022/12/22 07:37:07;;;;;;;78.32;16.05;;;;;;;;;;5067225;28;20045;-80
2022/12/22 07:39:34;;;;;;;80.38;17.23;;;;;;;;;;5067890;28;20148;-80
2022/12/22 07:44:45;;;;;;;67.05;17.02;;;;;;;;;;5067304;28;20049;-80
2022/12/22 07:47:11;;;;;;;74.88;19.10;;;;;;;;;;5072174;28;20052;-80
2022/12/22 07:52:22;;;;;;;71.47;18.95;;;;;;;;;;5070967;28;20130;-80
2022/12/22 07:54:49;;;;;;;69.20;17.83;;;;;;;;;;5068934;28;20707;-80
2022/12/22 07:57:15;;;;;;;66.38;16.17;;;;;;;;;;5071240;28;20160;-80
2022/12/22 07:59:41;;;;;;;58.88;16.15;;;;;;;;;;5067797;28;20053;-80
2022/12/22 08:02:10;;;;;;;62.78;15.20;;;;;;;;;;5051826;28;20049;-80
2022/12/22 08:04:36;;;;;;;57.20;14.60;;;;;;;;;;5045575;28;20139;-80
2022/12/22 08:07:03;;;;;;;63.75;15.00;;;;;;;;;;5070334;28;20103;-80
2022/12/22 08:09:29;;;;;;;55.33;15.30;;;;;;;;;;5063605;28;21016;-80
2022/12/22 08:11:55;;;;;;;56.53;15.13;;;;;;;;;;5067095;28;20049;-80
2022/12/22 08:14:22;;;;;;;64.15;15.13;;;;;;;;;;5052585;28;20056;-81
2022/12/22 08:16:48;;;;;;;57.05;14.80;;;;;;;;;;5071676;28;20136;-81
2022/12/22 08:19:14;;;;;;;52.88;13.80;;;;;;;;;;5071132;28;20140;-80
2022/12/22 08:21:41;;;;;;;56.45;12.60;;;;;;;;;;5050870;28;20064;-80
2022/12/22 08:24:17;;;;;;;50.05;13.27;;;;;;;;;;5068762;28;20053;-80
2022/12/22 08:26:45;;;;;;;42.20;11.95;;;;;;;;;;5050203;28;20057;-80
2022/12/22 08:29:18;;;;;;;47.10;12.55;;;;;;;;;;5066614;28;20504;-80
2022/12/22 08:31:44;;;;;;;36.03;10.50;;;;;;;;;;5069804;28;20045;-80
2022/12/22 08:34:12;;;;;;;42.38;11.48;;;;;;;;;;5067563;28;20533;-80
2022/12/22 08:36:40;;;;;;;49.80;11.70;;;;;;;;;;5062825;28;20144;-81
2022/12/22 08:39:07;;;;;;;43.95;12.07;;;;;;;;;;5063621;28;20067;-80
2022/12/22 08:41:52;;;;;;;48.58;12.32;;;;;;;;;;5060432;28;20140;-80
2022/12/22 08:44:23;;;;;;;52.42;13.20;;;;;;;;;;5065544;28;20583;-80
2022/12/22 08:46:50;;;;;;;53.20;13.18;;;;;;;;;;5047012;28;20571;-80
2022/12/22 08:49:17;;;;;;;42.38;11.35;;;;;;;;;;5065839;28;20056;-80
2022/12/22 08:51:44;;;;;;;43.38;12.00;;;;;;;;;;5069844;28;20079;-80
2022/12/22 08:54:10;;;;;;;41.95;10.80;;;;;;;;;;5070193;28;20182;-80
2022/12/22 08:56:37;;;;;;;44.17;12.82;;;;;;;;;;5053185;28;20959;-80
2022/12/22 08:59:06;;;;;;;61.13;20.08;;;;;;;;;;5069271;28;20060;-80
2022/12/22 09:01:34;;;;;;;75.13;26.05;;;;;;;;;;5065917;28;20067;-80
2022/12/22 09:04:01;;;;;;;61.40;21.63;;;;;;;;;;5070561;28;20057;-80
2022/12/22 09:06:27;;;;;;;42.03;14.65;;;;;;;;;;5069267;28;20085;-80
2022/12/22 09:09:04;;;;;;;38.65;11.32;;;;;;;;;;5052745;28;20111;-80
2022/12/22 09:11:31;;;;;;;35.88;10.05;;;;;;;;;;5069434;28;20047;-80
2022/12/22 09:13:59;;;;;;;33.20;9.75;;;;;;;;;;5067999;28;20479;-80
2022/12/22 09:16:26;;;;;;;37.03;8.90;;;;;;;;;;5068674;28;20060;-80
2022/12/22 09:18:54;;;;;;;28.92;9.15;;;;;;;;;;5066685;28;20512;-80
2022/12/22 09:21:21;;;;;;;32.80;8.48;;;;;;;;;;5069178;28;20554;-80
2022/12/22 09:23:47;;;;;;;27.98;8.00;;;;;;;;;;5066622;28;20053;-80
2022/12/22 09:26:16;;;;;;;28.67;8.75;;;;;;;;;;5067477;28;20049;-80
2022/12/22 09:28:43;;;;;;;29.77;8.63;;;;;;;;;;5064627;28;20593;-80
2022/12/22 09:31:15;;;;;;;29.10;11.73;;;;;;;;;;5064482;28;20111;-80
2022/12/22 09:33:42;;;;;;;32.38;12.20;;;;;;;;;;5061238;28;20139;-80
2022/12/22 09:36:09;;;;;;;38.78;11.18;;;;;;;;;;5065659;28;20542;-80
2022/12/22 09:38:36;;;;;;;34.58;10.07;;;;;;;;;;5068073;28;20537;-80
2022/12/22 09:41:06;;;;;;;33.47;8.93;;;;;;;;;;5067405;28;20458;-80
2022/12/22 09:43:33;;;;;;;28.52;8.68;;;;;;;;;;5066274;28;20125;-80
2022/12/22 09:45:59;;;;;;;30.25;9.68;;;;;;;;;;5070003;28;20055;-80
2022/12/22 09:48:36;;;;;;;37.45;10.60;;;;;;;;;;5068787;28;20591;-80
2022/12/22 09:51:03;;;;;;;35.28;9.00;;;;;;;;;;5070325;28;20077;-80
2022/12/22 09:53:30;;;;;;;32.13;9.30;;;;;;;;;;5062640;28;20064;-80
2022/12/22 09:55:57;;;;;;;30.38;9.15;;;;;;;;;;5062181;28;20061;-80
2022/12/22 09:58:23;;;;;;;27.35;8.35;;;;;;;;;;5064878;28;20041;-80
2022/12/22 10:01:12;;;;;;;25.13;7.93;;;;;;;;;;5068968;28;20107;-80
2022/12/22 10:03:42;;;;;;;23.55;9.45;;;;;;;;;;5059536;28;20056;-80
2022/12/22 10:06:08;;;;;;;25.52;9.68;;;;;;;;;;5067750;28;20064;-80
2022/12/22 10:08:36;;;;;;;31.15;9.43;;;;;;;;;;5050922;28;20057;-80
2022/12/22 10:11:02;;;;;;;27.67;8.38;;;;;;;;;;5068366;28;20069;-80
2022/12/22 10:13:29;;;;;;;27.38;9.45;;;;;;;;;;5051216;28;20056;-80
2022/12/22 10:15:55;;;;;;;30.77;10.40;;;;;;;;;;5066408;28;20072;-80
2022/12/22 10:18:23;;;;;;;24.10;9.68;;;;;;;;;;5051678;28;20053;-80
2022/12/22 10:21:06;;;;;;;30.60;9.50;;;;;;;;;;5071785;28;20436;-80
2022/12/22 10:23:34;;;;;;;22.70;7.20;;;;;;;;;;5047205;28;20064;-80
2022/12/22 10:26:10;;;;;;;21.13;8.75;;;;;;;;;;5063858;28;20573;-80
2022/12/22 10:29:09;;;;;;;17.73;7.30;;;;;;;;;;5069404;28;20599;-80
2022/12/22 10:31:38;;;;;;;21.27;7.43;;;;;;;;;;5068520;28;20053;-80
2022/12/22 10:34:09;;;;;;;21.77;8.40;;;;;;;;;;5053427;28;20380;-80
2022/12/22 10:36:36;;;;;;;20.73;8.60;;;;;;;;;;5064744;28;20109;-80
2022/12/22 10:39:07;;;;;;;25.40;9.45;;;;;;;;;;5065446;28;20075;-80
2022/12/22 10:41:44;;;;;;;21.42;9.13;;;;;;;;;;5067171;28;20064;-80
2022/12/22 10:44:18;;;;;;;24.38;8.50;;;;;;;;;;5062149;28;20531;-80
2022/12/22 10:46:47;;;;;;;22.80;8.65;;;;;;;;;;5049105;28;20056;-80
2022/12/22 10:49:13;;;;;;;23.75;9.40;;;;;;;;;;5057286;28;20586;-80
2022/12/22 10:51:41;;;;;;;22.35;8.68;;;;;;;;;;5060169;28;20057;-80
2022/12/22 10:54:08;;;;;;;28.92;9.30;;;;;;;;;;5049386;28;20064;-80
2022/12/22 10:56:34;;;;;;;23.35;9.73;;;;;;;;;;5069021;28;20061;-80
2022/12/22 10:59:00;;;;;;;23.02;9.35;;;;;;;;;;5068815;28;20732;-80
2022/12/22 11:01:28;;;;;;;27.77;10.77;;;;;;;;;;5068199;28;20569;-80
2022/12/22 11:03:55;;;;;;;22.58;9.88;;;;;;;;;;5068514;28;20053;-80
2022/12/22 11:06:22;;;;;;;24.05;10.27;;;;;;;;;;5065120;28;20049;-80
2022/12/22 11:08:48;;;;;;;25.95;11.38;;;;;;;;;;5042859;28;20919;-80
2022/12/22 11:11:33;;;;;;;27.17;12.13;;;;;;;;;;5066090;28;20552;-80
2022/12/22 11:14:19;;;;;;;25.38;11.10;;;;;;;;;;5068717;28;20064;-80
2022/12/22 11:16:50;;;;;;;30.88;12.30;;;;;;;;;;5047431;28;20096;-79
2022/12/22 11:19:35;;;;;;;31.42;13.23;;;;;;;;;;5069377;28;20140;-80
2022/12/22 11:22:07;;;;;;;32.65;12.82;;;;;;;;;;5069134;28;20131;-80
2022/12/22 11:24:56;;;;;;;32.55;13.02;;;;;;;;;;5067302;28;20057;-80
2022/12/22 11:27:41;;;;;;;30.73;13.35;;;;;;;;;;5070927;28;20053;-80
2022/12/22 11:30:15;;;;;;;32.63;13.57;;;;;;;;;;5071605;28;20541;-80
2022/12/22 11:32:50;;;;;;;28.27;12.55;;;;;;;;;;5071453;28;20053;-80
2022/12/22 11:35:41;;;;;;;31.83;12.63;;;;;;;;;;5070537;28;20989;-80
2022/12/22 11:38:08;;;;;;;;;;;;;;;;;;5048915;28;20059;-80
2022/12/22 11:40:37;;;;;;;29.17;12.88;;;;;;;;;;5054735;28;45369;-80
2022/12/22 11:43:22;;;;;;;37.28;14.98;;;;;;;;;;5065008;28;20061;-80
2022/12/22 11:46:13;;;;;;;32.33;13.70;;;;;;;;;;5068687;28;20508;-80
2022/12/22 11:48:55;;;;;;;28.20;12.55;;;;;;;;;;5070278;28;20057;-80
2022/12/22 11:51:21;;;;;;;26.25;11.55;;;;;;;;;;5071230;28;20067;-80
2022/12/22 11:54:11;;;;;;;22.40;10.45;;;;;;;;;;5072178;28;20131;-80
2022/12/22 11:56:39;;;;;;;23.10;8.80;;;;;;;;;;5063199;28;20050;-80
2022/12/22 11:59:24;;;;;;;22.17;9.07;;;;;;;;;;5071651;28;20111;-81
2022/12/22 12:02:00;;;;;;;16.45;7.10;;;;;;;;;;5072616;28;20060;-80
2022/12/22 12:04:56;;;;;;;14.98;6.43;;;;;;;;;;5069949;28;20045;-80
2022/12/22 12:07:25;;;;;;;14.20;6.32;;;;;;;;;;5046079;28;20909;-80
2022/12/22 12:09:51;;;;;;;13.20;5.30;;;;;;;;;;5072907;28;20049;-80
2022/12/22 12:12:21;;;;;;;13.43;5.65;;;;;;;;;;5069714;28;20048;-80
2022/12/22 12:14:52;;;;;;;16.85;6.13;;;;;;;;;;5069743;28;20367;-80
2022/12/22 12:17:37;;;;;;;13.75;5.47;;;;;;;;;;5048891;28;20105;-80
2022/12/22 12:20:22;;;;;;;15.70;5.57;;;;;;;;;;5055900;28;20056;-80
2022/12/22 12:22:56;;;;;;;18.48;6.78;;;;;;;;;;5069267;28;20049;-80
2022/12/22 12:25:27;;;;;;;11.43;5.03;;;;;;;;;;5051714;28;20058;-80
2022/12/22 12:27:59;;;;;;;14.77;6.35;;;;;;;;;;5062703;28;20244;-80
2022/12/22 12:30:28;;;;;;;16.90;7.07;;;;;;;;;;5063784;28;20093;-80
2022/12/22 12:33:14;;;;;;;16.65;7.68;;;;;;;;;;5062142;28;20064;-80
2022/12/22 12:35:48;;;;;;;20.30;9.00;;;;;;;;;;5072030;28;20057;-80
2022/12/22 12:38:35;;;;;;;22.90;10.27;;;;;;;;;;5047776;28;20049;-80
2022/12/22 12:41:40;;;;;;;23.40;10.77;;;;;;;;;;5053922;28;20053;-80
2022/12/22 12:44:15;;;;;;;23.98;10.73;;;;;;;;;;5079406;28;20142;-80
2022/12/22 12:46:47;;;;;;;25.10;10.70;;;;;;;;;;5074607;28;20920;-80
2022/12/22 12:49:32;;;;;;;29.20;10.85;;;;;;;;;;5066170;28;20610;-80
2022/12/22 12:52:05;;;;;;;24.55;10.95;;;;;;;;;;5069735;28;20053;-80
2022/12/22 12:54:32;;;;;;;25.75;10.80;;;;;;;;;;5070729;28;20044;-80
2022/12/22 12:57:00;;;;;;;24.90;10.40;;;;;;;;;;5060590;28;20045;-80
2022/12/22 12:59:44;;;;;;;24.80;9.55;;;;;;;;;;5077464;28;20053;-80
2022/12/22 13:02:41;;;;;;;25.48;10.18;;;;;;;;;;5069784;28;20073;-80
2022/12/22 13:05:10;;;;;;;25.00;10.77;;;;;;;;;;5051440;28;20127;-80
2022/12/22 13:07:55;;;;;;;23.50;10.00;;;;;;;;;;5059414;28;20057;-80
2022/12/22 13:10:23;;;;;;;27.65;11.20;;;;;;;;;;5069218;28;20500;-80
2022/12/22 13:12:52;;;;;;;31.58;11.30;;;;;;;;;;5068725;28;20056;-80
2022/12/22 13:15:44;;;;;;;27.48;11.73;;;;;;;;;;5066586;28;20064;-79
2022/12/22 13:18:31;;;;;;;28.63;12.55;;;;;;;;;;5066602;28;20061;-80
2022/12/22 13:21:05;;;;;;;32.40;11.48;;;;;;;;;;5048485;28;20061;-80
2022/12/22 13:24:11;;;;;;;30.92;13.50;;;;;;;;;;5070288;28;20057;-80
2022/12/22 13:26:53;;;;;;;32.42;12.60;;;;;;;;;;5044048;28;20075;-80
2022/12/22 13:29:46;;;;;;;36.22;12.98;;;;;;;;;;5068130;28;20048;-80
2022/12/22 13:32:19;;;;;;;34.60;14.07;;;;;;;;;;5066381;28;20053;-80
2022/12/22 13:34:45;;;;;;;32.15;13.25;;;;;;;;;;5065509;28;20726;-80
2022/12/22 13:37:38;;;;;;;33.40;13.73;;;;;;;;;;5045660;28;20467;-80
2022/12/22 13:40:16;;;;;;;34.38;13.48;;;;;;;;;;5070692;28;20053;-80
2022/12/22 13:42:53;;;;;;;33.72;13.93;;;;;;;;;;5071244;28;20131;-80
2022/12/22 13:45:38;;;;;;;35.67;13.82;;;;;;;;;;5065057;28;20565;-80
2022/12/22 13:48:07;;;;;;;33.53;13.65;;;;;;;;;;5068893;28;20063;-80
2022/12/22 13:50:36;;;;;;;35.78;13.60;;;;;;;;;;5070864;28;20068;-80
2022/12/22 13:53:05;;;;;;;33.10;13.88;;;;;;;;;;5071503;28;20053;-80
2022/12/22 13:55:31;;;;;;;38.00;13.95;;;;;;;;;;5069813;28;20085;-80
2022/12/22 13:58:06;;;;;;;37.33;14.18;;;;;;;;;;5069598;28;20067;-80
2022/12/22 14:00:32;;;;;;;35.15;13.48;;;;;;;;;;5062491;28;20571;-80
2022/12/22 14:02:59;;;;;;;36.13;15.27;;;;;;;;;;5049613;28;20049;-80
2022/12/22 14:05:30;;;;;;;34.67;15.38;;;;;;;;;;5048395;28;20056;-80
2022/12/22 14:08:01;;;;;;;35.58;14.05;;;;;;;;;;5071392;28;20083;-80
2022/12/22 14:10:30;;;;;;;35.70;13.93;;;;;;;;;;5067233;28;20504;-80
2022/12/22 14:12:57;;;;;;;38.53;15.32;;;;;;;;;;5085109;28;20053;-80
2022/12/22 14:15:24;;;;;;;35.20;13.98;;;;;;;;;;5077341;28;20061;-80
2022/12/22 14:17:50;;;;;;;35.70;14.80;;;;;;;;;;5084626;28;20057;-80
2022/12/22 14:20:27;;;;;;;35.38;15.07;;;;;;;;;;5051953;28;20056;-80
2022/12/22 14:22:56;;;;;;;37.05;14.85;;;;;;;;;;5065568;28;20144;-80
2022/12/22 14:25:26;;;;;;;44.42;16.17;;;;;;;;;;5068282;28;20504;-79
2022/12/22 14:27:54;;;;;;;38.35;14.45;;;;;;;;;;5067606;28;20065;-79
2022/12/22 14:30:23;;;;;;;39.50;16.00;;;;;;;;;;5069069;28;20053;-79
2022/12/22 14:32:51;;;;;;;40.55;15.13;;;;;;;;;;5068806;28;20977;-80
2022/12/22 14:35:21;;;;;;;38.67;16.30;;;;;;;;;;5053207;28;20914;-81
2022/12/22 14:38:10;;;;;;;35.85;15.50;;;;;;;;;;5051111;28;20052;-80
2022/12/22 14:40:38;;;;;;;36.47;15.38;;;;;;;;;;5044794;28;20152;-79
2022/12/22 14:43:18;;;;;;;34.72;14.52;;;;;;;;;;5048846;28;20050;-79
2022/12/22 14:45:45;;;;;;;39.20;15.80;;;;;;;;;;5048711;28;20057;-80
2022/12/22 14:48:26;;;;;;;39.55;15.20;;;;;;;;;;5048542;28;20049;-80
2022/12/22 14:50:53;;;;;;;38.03;16.02;;;;;;;;;;5047935;28;20093;-80
2022/12/22 14:53:25;;;;;;;38.00;16.40;;;;;;;;;;5063699;28;20119;-80
2022/12/22 14:55:52;;;;;;;42.80;16.58;;;;;;;;;;5069742;28;20144;-80
2022/12/22 14:58:27;;;;;;;42.67;15.80;;;;;;;;;;5069555;28;20052;-79
2022/12/22 15:01:12;;;;;;;39.95;16.55;;;;;;;;;;5069779;28;20516;-79
2022/12/22 15:03:39;;;;;;;42.33;17.38;;;;;;;;;;5031343;28;20055;-80
2022/12/22 15:06:23;;;;;;;41.22;16.33;;;;;;;;;;5060689;28;21006;-80
2022/12/22 15:08:52;;;;;;;43.53;17.55;;;;;;;;;;5069030;28;20055;-79
2022/12/22 15:11:21;;;;;;;42.65;16.92;;;;;;;;;;5068549;28;20048;-79
2022/12/22 15:13:48;;;;;;;40.17;16.95;;;;;;;;;;5068523;28;20107;-80
2022/12/22 15:16:17;;;;;;;44.47;18.30;;;;;;;;;;5068814;28;20514;-79
2022/12/22 15:18:43;;;;;;;45.75;19.05;;;;;;;;;;5068012;28;20516;-78
2022/12/22 15:21:11;;;;;;;43.05;18.38;;;;;;;;;;5067533;28;20507;-79
2022/12/22 15:23:38;;;;;;;51.55;20.25;;;;;;;;;;5069671;28;20053;-79
2022/12/22 15:26:04;;;;;;;52.85;19.95;;;;;;;;;;5057195;28;20522;-79
2022/12/22 15:28:31;;;;;;;56.75;20.58;;;;;;;;;;5070156;28;20053;-79
2022/12/22 15:30:58;;;;;;;46.15;19.27;;;;;;;;;;5050824;28;20054;-79
2022/12/22 15:33:25;;;;;;;46.92;19.00;;;;;;;;;;5070815;28;20510;-79
2022/12/22 15:35:52;;;;;;;52.85;20.13;;;;;;;;;;5070203;28;20079;-79
2022/12/22 15:38:19;;;;;;;49.00;19.38;;;;;;;;;;5069869;28;20140;-79
2022/12/22 15:40:46;;;;;;;48.63;19.20;;;;;;;;;;5070081;28;20316;-79
2022/12/22 15:43:13;;;;;;;52.08;19.85;;;;;;;;;;5070708;28;20059;-79
2022/12/22 15:46:00;;;;;;;48.38;20.00;;;;;;;;;;5053347;28;20056;-79
2022/12/22 15:48:28;;;;;;;51.20;19.13;;;;;;;;;;5069574;28;20053;-79
2022/12/22 15:50:54;;;;;;;45.60;19.48;;;;;;;;;;5069361;28;20111;-79
2022/12/22 15:53:21;;;;;;;59.08;20.27;;;;;;;;;;5061669;28;20101;-80
2022/12/22 15:55:48;;;;;;;58.42;20.45;;;;;;;;;;5069143;28;20049;-80
2022/12/22 15:58:16;;;;;;;56.53;21.67;;;;;;;;;;5067181;28;20504;-79
2022/12/22 16:00:45;;;;;;;53.35;21.73;;;;;;;;;;5051107;28;20049;-79
2022/12/22 16:03:12;;;;;;;65.30;23.17;;;;;;;;;;5069791;28;20115;-79
2022/12/22 16:05:39;;;;;;;58.67;23.38;;;;;;;;;;5072447;28;20056;-79
2022/12/22 16:08:11;;;;;;;64.57;21.95;;;;;;;;;;5072887;28;20060;-79
2022/12/22 16:10:43;;;;;;;72.47;25.80;;;;;;;;;;5055428;28;20429;-79
2022/12/22 16:13:10;;;;;;;78.10;28.05;;;;;;;;;;5073245;28;20061;-79
2022/12/22 16:15:37;;;;;;;65.32;23.17;;;;;;;;;;5073086;28;20083;-79
2022/12/22 16:18:03;;;;;;;65.18;24.05;;;;;;;;;;5073012;28;20097;-79
2022/12/22 16:20:31;;;;;;;68.85;25.05;;;;;;;;;;5071842;28;20144;-79
2022/12/22 16:23:03;;;;;;;65.25;21.35;;;;;;;;;;5054332;28;20057;-79
2022/12/22 16:25:32;;;;;;;65.28;22.13;;;;;;;;;;5071544;28;20543;-79
2022/12/22 16:28:00;;;;;;;63.33;22.45;;;;;;;;;;5055867;28;20096;-79
2022/12/22 16:30:28;;;;;;;59.92;22.27;;;;;;;;;;5070190;28;20075;-80
2022/12/22 16:32:54;;;;;;;57.75;20.50;;;;;;;;;;5072294;28;20037;-80
2022/12/22 16:35:22;;;;;;;55.85;20.77;;;;;;;;;;5073403;28;20245;-79
2022/12/22 16:37:49;;;;;;;52.92;18.42;;;;;;;;;;5071157;28;20101;-80
2022/12/22 16:40:17;;;;;;;51.67;19.30;;;;;;;;;;5071926;28;20061;-79
2022/12/22 16:42:56;;;;;;;58.15;20.73;;;;;;;;;;5052788;28;20079;-79
2022/12/22 16:45:42;;;;;;;47.50;17.52;;;;;;;;;;5067268;28;20041;-80
2022/12/22 16:48:11;;;;;;;48.72;17.95;;;;;;;;;;5072501;28;20045;-79
2022/12/22 16:50:38;;;;;;;53.55;18.38;;;;;;;;;;5071000;28;20156;-80
2022/12/22 16:53:04;;;;;;;50.92;16.73;;;;;;;;;;5071443;28;20602;-80
2022/12/22 16:55:32;;;;;;;44.90;16.13;;;;;;;;;;5071071;28;20811;-80
2022/12/22 16:57:58;;;;;;;41.97;15.70;;;;;;;;;;5052818;28;20053;-80
2022/12/22 17:00:27;;;;;;;51.67;16.00;;;;;;;;;;5069362;28;20038;-80
2022/12/22 17:02:55;;;;;;;41.97;15.07;;;;;;;;;;5067967;28;20104;-80
2022/12/22 17:05:25;;;;;;;47.45;15.95;;;;;;;;;;5066954;28;20053;-80
2022/12/22 17:07:51;;;;;;;43.85;15.82;;;;;;;;;;5053753;28;20802;-80
2022/12/22 17:10:19;;;;;;;40.00;15.45;;;;;;;;;;5053061;28;20153;-80
2022/12/22 17:12:46;;;;;;;47.63;14.35;;;;;;;;;;5069156;28;20135;-80
2022/12/22 17:15:16;;;;;;;41.15;15.23;;;;;;;;;;5068916;28;20057;-79
2022/12/22 17:17:42;;;;;;;42.47;14.18;;;;;;;;;;5052491;28;20512;-79
2022/12/22 17:20:12;;;;;;;46.13;15.55;;;;;;;;;;5071607;28;20057;-79
2022/12/22 17:22:39;;;;;;;49.15;17.38;;;;;;;;;;5070871;28;20063;-79
2022/12/22 17:25:07;;;;;;;49.67;17.48;;;;;;;;;;5048340;28;20059;-79
2022/12/22 17:27:34;;;;;;;41.97;16.55;;;;;;;;;;5052535;28;20115;-79
2022/12/22 17:30:02;;;;;;;45.42;15.77;;;;;;;;;;5053161;28;20061;-80
2022/12/22 17:32:28;;;;;;;44.42;15.27;;;;;;;;;;5054035;28;20057;-80
2022/12/22 17:34:54;;;;;;;45.95;14.82;;;;;;;;;;5068581;28;20053;-80
2022/12/22 17:37:22;;;;;;;42.70;14.63;;;;;;;;;;5070035;28;20048;-80
2022/12/22 17:39:54;;;;;;;41.97;14.40;;;;;;;;;;5063498;28;20063;-80
2022/12/22 17:42:22;;;;;;;39.70;15.30;;;;;;;;;;5067548;28;20057;-80
2022/12/22 17:44:49;;;;;;;33.92;14.00;;;;;;;;;;5063821;28;20049;-79
2022/12/22 17:47:17;;;;;;;43.17;15.52;;;;;;;;;;5070021;28;20053;-79
2022/12/22 17:49:43;;;;;;;45.03;15.35;;;;;;;;;;5070580;28;20092;-79
2022/12/22 17:52:20;;;;;;;34.92;12.35;;;;;;;;;;5068435;28;20037;-80
2022/12/22 17:54:47;;;;;;;34.10;12.60;;;;;;;;;;5067951;28;20057;-80
2022/12/22 17:57:17;;;;;;;37.13;12.45;;;;;;;;;;5062065;28;20436;-80
2022/12/22 17:59:43;;;;;;;29.52;11.73;;;;;;;;;;5052048;28;20463;-79
2022/12/22 18:02:14;;;;;;;33.50;12.93;;;;;;;;;;5070094;28;20053;-80
2022/12/22 18:04:41;;;;;;;32.33;11.45;;;;;;;;;;5058083;28;20911;-81
2022/12/22 18:07:07;;;;;;;34.45;11.88;;;;;;;;;;5067729;28;20586;-81
2022/12/22 18:09:34;;;;;;;38.88;11.70;;;;;;;;;;5067631;28;20049;-81
2022/12/22 18:12:01;;;;;;;40.10;12.63;;;;;;;;;;5069638;28;20701;-80